La Blanca, Texas
Current Conditions -  °F | °C
As of 6:35 AM on Friday 24 Oct 2014 (Local Time) from KT65 Reporting Station
Haze Haze  
Wind Chill: 18°   Ceiling: Unl
Heat Index: 18°   Visibility: 5mi
Dew Point: 17°   Wind: 3mph
Humidity: 93%   Direction: 360°N
Pressure: 30.08"   Gusts: NA
Location:  26.29°N, 98.04°W
Report Text: KT65 241135Z AUTO 36003KT 5SM BR CLR 18/17 A3008 RMK AO2 T01820171
Loading
Personal Weather Stations






























Interactive Weather Map
Tropical Storm Tracking
New forecast layout! Learn more

10-Day Weather Forecast

Advertisements
Track Severe Weather on mobile